Time;durP1;ratioP1;P1;durP2;ratioP2;P2;SDS_P1;SDS_P2;PMS_P1;PMS_P2;Temp;Humidity;BMP_temperature;BMP_pressure;BME280_temperature;BME280_humidity;BME280_pressure;Samples;Min_cycle;Max_cycle;Signal;HPM_P1;HPM_P2
2023/05/07 00:00:53;;;;;;;5.35;3.90;;;;;;;;;;6126327;23;20036;-75
2023/05/07 00:03:20;;;;;;;6.32;3.22;;;;;;;;;;6099962;23;20013;-74
2023/05/07 00:05:46;;;;;;;6.25;3.53;;;;;;;;;;6098729;23;20514;-74
2023/05/07 00:08:12;;;;;;;5.30;3.63;;;;;;;;;;6098107;23;20014;-73
2023/05/07 00:10:38;;;;;;;3.97;3.70;;;;;;;;;;6123454;23;20070;-73
2023/05/07 00:13:05;;;;;;;7.68;3.67;;;;;;;;;;6124303;23;20024;-74
2023/05/07 00:15:31;;;;;;;4.03;3.72;;;;;;;;;;6097690;23;20021;-74
2023/05/07 00:17:59;;;;;;;4.20;3.90;;;;;;;;;;6122911;23;20549;-74
2023/05/07 00:20:25;;;;;;;3.80;3.47;;;;;;;;;;6123945;23;20128;-74
2023/05/07 00:22:51;;;;;;;6.00;3.45;;;;;;;;;;6123263;23;20017;-74
2023/05/07 00:25:19;;;;;;;5.72;3.80;;;;;;;;;;6123308;23;20037;-74
2023/05/07 00:27:46;;;;;;;5.15;3.95;;;;;;;;;;6097622;23;20058;-74
2023/05/07 00:30:12;;;;;;;4.13;3.70;;;;;;;;;;6123454;23;20026;-76
2023/05/07 00:32:38;;;;;;;4.30;3.35;;;;;;;;;;6097717;23;20010;-74
2023/05/07 00:35:05;;;;;;;12.68;4.07;;;;;;;;;;6098059;23;20010;-74
2023/05/07 00:37:31;;;;;;;4.90;4.13;;;;;;;;;;6097655;23;20017;-73
2023/05/07 00:39:57;;;;;;;6.57;4.35;;;;;;;;;;6073300;23;20037;-74
2023/05/07 00:42:23;;;;;;;4.43;3.83;;;;;;;;;;6123531;23;20021;-74
2023/05/07 00:44:50;;;;;;;4.30;3.90;;;;;;;;;;6073118;23;20025;-73
2023/05/07 00:47:16;;;;;;;4.07;3.78;;;;;;;;;;6097719;23;20022;-73
2023/05/07 00:49:42;;;;;;;4.28;3.88;;;;;;;;;;6123542;23;20097;-74
2023/05/07 00:52:09;;;;;;;4.70;4.30;;;;;;;;;;6123882;23;20018;-74
2023/05/07 00:54:35;;;;;;;6.63;3.85;;;;;;;;;;6076282;23;20013;-73
2023/05/07 00:57:02;;;;;;;8.82;2.45;;;;;;;;;;6127808;23;20415;-73
2023/05/07 00:59:27;;;;;;;2.83;2.63;;;;;;;;;;6101682;23;20336;-74
2023/05/07 01:01:53;;;;;;;5.20;3.78;;;;;;;;;;6101352;23;20024;-74
2023/05/07 01:04:20;;;;;;;4.15;3.85;;;;;;;;;;6127360;23;20010;-78
2023/05/07 01:06:46;;;;;;;4.55;3.80;;;;;;;;;;6077563;23;20105;-73
2023/05/07 01:09:12;;;;;;;3.90;3.63;;;;;;;;;;6077857;23;20017;-73
2023/05/07 01:11:38;;;;;;;4.60;4.10;;;;;;;;;;6100841;23;20038;-73
2023/05/07 01:14:04;;;;;;;5.65;4.13;;;;;;;;;;6123104;23;20089;-73
2023/05/07 01:16:31;;;;;;;9.80;4.40;;;;;;;;;;6097931;23;20572;-73
2023/05/07 01:18:57;;;;;;;3.92;3.63;;;;;;;;;;6097271;23;20462;-74
2023/05/07 01:21:25;;;;;;;4.55;4.13;;;;;;;;;;6073129;23;20014;-73
2023/05/07 01:23:51;;;;;;;4.40;3.95;;;;;;;;;;6096903;23;20035;-73
2023/05/07 01:26:19;;;;;;;4.88;4.47;;;;;;;;;;6049239;23;20025;-74
2023/05/07 01:28:45;;;;;;;6.53;4.22;;;;;;;;;;6073205;23;20013;-74
2023/05/07 01:31:12;;;;;;;4.28;3.97;;;;;;;;;;6122415;23;20032;-74
2023/05/07 01:33:39;;;;;;;5.63;3.90;;;;;;;;;;6097008;23;20061;-74
2023/05/07 01:36:06;;;;;;;5.53;4.38;;;;;;;;;;6096619;23;20018;-74
2023/05/07 01:38:32;;;;;;;4.43;3.92;;;;;;;;;;6097119;23;20018;-73
2023/05/07 01:40:58;;;;;;;4.25;3.95;;;;;;;;;;6122738;23;20072;-74
2023/05/07 01:43:25;;;;;;;4.75;3.90;;;;;;;;;;6073230;23;20033;-74
2023/05/07 01:45:51;;;;;;;4.80;4.30;;;;;;;;;;6097058;23;20351;-75
2023/05/07 01:48:17;;;;;;;4.35;3.97;;;;;;;;;;6072997;23;20022;-74
2023/05/07 01:50:43;;;;;;;6.85;3.95;;;;;;;;;;6075240;23;20018;-74
2023/05/07 01:53:12;;;;;;;8.30;5.20;;;;;;;;;;6073662;23;20040;-74
2023/05/07 01:55:39;;;;;;;4.75;4.22;;;;;;;;;;6074283;23;20018;-74
2023/05/07 01:58:06;;;;;;;5.05;4.43;;;;;;;;;;6096723;23;20099;-74
2023/05/07 02:00:32;;;;;;;4.45;3.78;;;;;;;;;;6097374;23;20089;-74
2023/05/07 02:02:58;;;;;;;4.70;4.30;;;;;;;;;;6073040;23;20014;-74
2023/05/07 02:05:39;;;;;;;4.15;3.75;;;;;;;;;;6097174;23;20017;-74
2023/05/07 02:08:26;;;;;;;4.68;4.13;;;;;;;;;;6097161;23;20017;-74
2023/05/07 02:10:53;;;;;;;4.47;4.15;;;;;;;;;;6122716;23;20014;-74
2023/05/07 02:13:21;;;;;;;4.53;4.15;;;;;;;;;;6072755;23;20026;-74
2023/05/07 02:15:50;;;;;;;5.20;3.80;;;;;;;;;;6073743;23;20053;-75
2023/05/07 02:18:17;;;;;;;4.28;3.97;;;;;;;;;;6123803;23;20403;-74
2023/05/07 02:20:44;;;;;;;3.92;3.65;;;;;;;;;;6075122;23;20351;-74
2023/05/07 02:23:10;;;;;;;3.50;3.20;;;;;;;;;;6098768;23;20367;-75
2023/05/07 02:25:36;;;;;;;6.85;4.20;;;;;;;;;;6098719;23;20025;-75
2023/05/07 02:28:02;;;;;;;4.05;3.75;;;;;;;;;;6074987;23;20014;-74
2023/05/07 02:30:40;;;;;;;4.90;4.50;;;;;;;;;;6098852;23;20029;-75
2023/05/07 02:33:08;;;;;;;5.38;3.88;;;;;;;;;;6125009;23;20022;-75
2023/05/07 02:35:34;;;;;;;6.20;4.88;;;;;;;;;;6100256;23;20045;-75
2023/05/07 02:38:00;;;;;;;5.03;4.55;;;;;;;;;;6110139;23;20038;-75
2023/05/07 02:40:26;;;;;;;6.00;4.68;;;;;;;;;;6137471;23;20016;-75
2023/05/07 02:42:53;;;;;;;5.25;4.43;;;;;;;;;;6087156;23;20018;-74
2023/05/07 02:45:19;;;;;;;5.75;4.50;;;;;;;;;;6102751;23;20459;-74
2023/05/07 02:47:46;;;;;;;4.63;4.22;;;;;;;;;;6098507;23;20024;-74
2023/05/07 02:50:12;;;;;;;5.72;4.55;;;;;;;;;;6098335;23;20025;-74
2023/05/07 02:52:39;;;;;;;4.43;4.03;;;;;;;;;;6098194;23;20404;-73
2023/05/07 02:55:06;;;;;;;6.70;4.13;;;;;;;;;;6097489;23;20014;-73
2023/05/07 02:57:32;;;;;;;5.45;4.30;;;;;;;;;;6097860;23;20117;-74
2023/05/07 02:59:58;;;;;;;7.80;4.97;;;;;;;;;;6097639;23;20133;-74
2023/05/07 03:02:25;;;;;;;5.53;4.55;;;;;;;;;;6098198;23;20018;-74
2023/05/07 03:04:51;;;;;;;4.85;4.45;;;;;;;;;;6097930;23;20014;-75
2023/05/07 03:07:17;;;;;;;5.13;4.50;;;;;;;;;;6098112;23;20022;-75
2023/05/07 03:09:44;;;;;;;8.25;4.45;;;;;;;;;;6074212;23;20081;-75
2023/05/07 03:12:10;;;;;;;5.38;4.70;;;;;;;;;;6074055;23;20358;-75
2023/05/07 03:14:36;;;;;;;5.10;4.57;;;;;;;;;;6075146;23;20010;-75
2023/05/07 03:17:02;;;;;;;3.78;3.47;;;;;;;;;;6099951;23;20025;-75
2023/05/07 03:19:28;;;;;;;5.80;3.72;;;;;;;;;;6099356;23;20379;-75
2023/05/07 03:21:54;;;;;;;4.18;3.83;;;;;;;;;;6099004;23;20021;-75
2023/05/07 03:24:20;;;;;;;6.30;4.78;;;;;;;;;;6098816;23;20478;-74
2023/05/07 03:26:46;;;;;;;4.97;4.25;;;;;;;;;;6098383;23;20131;-75
2023/05/07 03:29:12;;;;;;;7.68;5.25;;;;;;;;;;6073365;23;20010;-75
2023/05/07 03:31:38;;;;;;;5.72;4.60;;;;;;;;;;6122886;23;20033;-75
2023/05/07 03:34:04;;;;;;;3.13;2.80;;;;;;;;;;6073468;23;20021;-76
2023/05/07 03:36:31;;;;;;;6.28;5.35;;;;;;;;;;6124823;23;20028;-74
2023/05/07 03:38:57;;;;;;;10.20;4.72;;;;;;;;;;6074847;23;20092;-76
2023/05/07 03:41:26;;;;;;;6.03;4.57;;;;;;;;;;6075311;23;20092;-77
2023/05/07 03:43:52;;;;;;;5.53;4.32;;;;;;;;;;6123708;23;20014;-76
2023/05/07 03:46:18;;;;;;;13.07;4.90;;;;;;;;;;6073582;23;20021;-75
2023/05/07 03:48:45;;;;;;;7.38;6.20;;;;;;;;;;6049876;23;20014;-76
2023/05/07 03:51:13;;;;;;;13.48;4.47;;;;;;;;;;6074326;23;20414;-76
2023/05/07 03:53:39;;;;;;;5.13;4.63;;;;;;;;;;6100220;23;20014;-75
2023/05/07 03:56:05;;;;;;;5.85;4.85;;;;;;;;;;6123112;23;20018;-76
2023/05/07 03:58:35;;;;;;;3.78;3.53;;;;;;;;;;6074066;23;20009;-76
2023/05/07 04:01:07;;;;;;;3.67;3.38;;;;;;;;;;6074791;23;20474;-75
2023/05/07 04:03:33;;;;;;;3.30;3.10;;;;;;;;;;6097658;23;20131;-76
2023/05/07 04:06:00;;;;;;;7.72;3.95;;;;;;;;;;6123393;23;20021;-75
2023/05/07 04:08:26;;;;;;;4.68;4.38;;;;;;;;;;6097968;23;20036;-76
2023/05/07 04:10:54;;;;;;;3.25;2.95;;;;;;;;;;6096627;23;20018;-76
2023/05/07 04:13:21;;;;;;;8.60;3.50;;;;;;;;;;6097430;23;20021;-76
2023/05/07 04:15:48;;;;;;;5.05;4.65;;;;;;;;;;6097207;23;20014;-75
2023/05/07 04:18:17;;;;;;;5.90;2.75;;;;;;;;;;6097420;23;20018;-75
2023/05/07 04:20:45;;;;;;;3.92;3.63;;;;;;;;;;6097444;23;20092;-76
2023/05/07 04:23:13;;;;;;;4.32;3.28;;;;;;;;;;6097101;23;20044;-77
2023/05/07 04:25:41;;;;;;;3.38;3.03;;;;;;;;;;6073642;23;20201;-76
2023/05/07 04:28:16;;;;;;;3.72;3.10;;;;;;;;;;6097525;23;20068;-75
2023/05/07 04:30:45;;;;;;;3.22;2.55;;;;;;;;;;6097694;23;20025;-76
2023/05/07 04:33:11;;;;;;;3.05;2.72;;;;;;;;;;6073334;23;20411;-76
2023/05/07 04:35:40;;;;;;;3.05;2.80;;;;;;;;;;6097979;23;20332;-76
2023/05/07 04:38:06;;;;;;;2.78;2.60;;;;;;;;;;6097113;23;20411;-75
2023/05/07 04:40:32;;;;;;;2.55;2.30;;;;;;;;;;6073447;23;20411;-76
2023/05/07 04:43:00;;;;;;;3.08;2.88;;;;;;;;;;6097878;23;20052;-78
2023/05/07 04:45:28;;;;;;;2.75;2.50;;;;;;;;;;6074279;23;20017;-77
2023/05/07 04:47:54;;;;;;;4.95;2.50;;;;;;;;;;6073210;23;20073;-77
2023/05/07 04:50:23;;;;;;;2.30;2.20;;;;;;;;;;6097571;23;20037;-76
2023/05/07 04:52:50;;;;;;;3.85;2.70;;;;;;;;;;6097349;23;20458;-76
2023/05/07 04:55:17;;;;;;;2.55;2.35;;;;;;;;;;6122828;23;20038;-76
2023/05/07 04:57:43;;;;;;;2.20;2.10;;;;;;;;;;6073552;23;20009;-74
2023/05/07 05:00:14;;;;;;;2.67;2.47;;;;;;;;;;6072511;23;20018;-74
2023/05/07 05:02:42;;;;;;;5.35;2.42;;;;;;;;;;6074219;23;20014;-74
2023/05/07 05:05:08;;;;;;;2.20;2.10;;;;;;;;;;6096797;23;20025;-75
2023/05/07 05:07:34;;;;;;;2.88;2.38;;;;;;;;;;6097245;23;20029;-75
2023/05/07 05:10:02;;;;;;;2.78;2.45;;;;;;;;;;6072951;23;20018;-75
2023/05/07 05:12:30;;;;;;;2.13;2.03;;;;;;;;;;6073735;23;20029;-75
2023/05/07 05:14:58;;;;;;;2.20;2.10;;;;;;;;;;6096768;23;20626;-75
2023/05/07 05:17:24;;;;;;;2.35;2.22;;;;;;;;;;6123414;23;20014;-75
2023/05/07 05:19:50;;;;;;;2.40;2.30;;;;;;;;;;6123199;23;20101;-76
2023/05/07 05:22:17;;;;;;;2.13;2.03;;;;;;;;;;6097142;23;20020;-75
2023/05/07 05:24:43;;;;;;;4.07;2.55;;;;;;;;;;6122678;23;20054;-74
2023/05/07 05:27:09;;;;;;;2.40;2.20;;;;;;;;;;6096827;23;20021;-75
2023/05/07 05:29:35;;;;;;;2.08;1.98;;;;;;;;;;6122562;23;20020;-75
2023/05/07 05:32:01;;;;;;;1.63;1.63;;;;;;;;;;6048948;23;20065;-74
2023/05/07 05:34:29;;;;;;;2.65;2.00;;;;;;;;;;6096703;23;20455;-74
2023/05/07 05:36:56;;;;;;;3.05;2.60;;;;;;;;;;6096901;23;20354;-75
2023/05/07 05:39:23;;;;;;;2.70;1.80;;;;;;;;;;6096986;23;20131;-74
2023/05/07 05:41:49;;;;;;;2.55;2.15;;;;;;;;;;6123020;23;20021;-74
2023/05/07 05:44:16;;;;;;;2.00;1.90;;;;;;;;;;6096868;23;20014;-74
2023/05/07 05:46:43;;;;;;;1.95;1.85;;;;;;;;;;6097243;23;20022;-74
2023/05/07 05:49:09;;;;;;;1.98;1.70;;;;;;;;;;6073378;23;20038;-74
2023/05/07 05:51:35;;;;;;;2.53;2.30;;;;;;;;;;6094316;23;20041;-79
2023/05/07 05:54:01;;;;;;;3.08;1.83;;;;;;;;;;6049565;23;20014;-79
2023/05/07 05:56:27;;;;;;;2.40;2.22;;;;;;;;;;6118155;23;20061;-79
2023/05/07 05:58:53;;;;;;;2.80;2.45;;;;;;;;;;6121809;23;20025;-78
2023/05/07 06:01:19;;;;;;;3.35;2.35;;;;;;;;;;6097495;23;20237;-76
2023/05/07 06:03:47;;;;;;;3.55;2.90;;;;;;;;;;6097800;23;20048;-78
2023/05/07 06:06:15;;;;;;;4.32;2.80;;;;;;;;;;6081466;23;20041;-74
2023/05/07 06:08:42;;;;;;;4.13;2.05;;;;;;;;;;6098497;23;20100;-74
2023/05/07 06:11:09;;;;;;;2.30;2.03;;;;;;;;;;6097084;23;20394;-73
2023/05/07 06:13:38;;;;;;;2.08;1.98;;;;;;;;;;6098451;23;20105;-74
2023/05/07 06:16:04;;;;;;;2.35;2.25;;;;;;;;;;6097776;23;20037;-74
2023/05/07 06:18:30;;;;;;;1.80;1.75;;;;;;;;;;6097434;23;20009;-74
2023/05/07 06:20:57;;;;;;;2.10;2.00;;;;;;;;;;6073195;23;20554;-74
2023/05/07 06:23:27;;;;;;;7.07;3.70;;;;;;;;;;6074133;23;20072;-73
2023/05/07 06:25:53;;;;;;;3.28;3.08;;;;;;;;;;6073494;23;20045;-74
2023/05/07 06:28:23;;;;;;;3.15;2.88;;;;;;;;;;6073619;23;20128;-73
2023/05/07 06:30:50;;;;;;;1.75;1.70;;;;;;;;;;6097541;23;20085;-76
2023/05/07 06:33:17;;;;;;;10.25;2.13;;;;;;;;;;6073361;23;20426;-76
2023/05/07 06:35:43;;;;;;;2.95;2.58;;;;;;;;;;6097844;23;20048;-76
2023/05/07 06:38:09;;;;;;;2.72;2.53;;;;;;;;;;6123243;23;20053;-75
2023/05/07 06:40:35;;;;;;;2.28;2.17;;;;;;;;;;6048639;23;20010;-74
2023/05/07 06:43:01;;;;;;;2.20;2.10;;;;;;;;;;6122037;23;20363;-73
2023/05/07 06:45:35;;;;;;;3.75;2.50;;;;;;;;;;6096192;23;20009;-75
2023/05/07 06:48:02;;;;;;;2.08;2.00;;;;;;;;;;6122476;23;20018;-76
2023/05/07 06:50:31;;;;;;;2.80;2.60;;;;;;;;;;6097581;23;20014;-76
2023/05/07 06:52:58;;;;;;;4.93;2.97;;;;;;;;;;6074228;23;20021;-75
2023/05/07 06:55:25;;;;;;;2.05;1.95;;;;;;;;;;6095965;23;20053;-73
2023/05/07 06:57:52;;;;;;;4.00;2.42;;;;;;;;;;6095617;23;20220;-73
2023/05/07 07:00:20;;;;;;;8.13;2.90;;;;;;;;;;6095316;23;20037;-74
2023/05/07 07:02:54;;;;;;;3.63;2.10;;;;;;;;;;6095232;23;20022;-73
2023/05/07 07:05:23;;;;;;;1.70;1.60;;;;;;;;;;6071407;23;20014;-74
2023/05/07 07:07:52;;;;;;;1.98;1.90;;;;;;;;;;6083065;23;20040;-73
2023/05/07 07:10:19;;;;;;;3.20;2.65;;;;;;;;;;6109414;23;20010;-73
2023/05/07 07:12:46;;;;;;;2.50;2.40;;;;;;;;;;6114040;23;20151;-73
2023/05/07 07:15:13;;;;;;;2.70;2.50;;;;;;;;;;6142218;23;20057;-74
2023/05/07 07:17:39;;;;;;;3.05;2.33;;;;;;;;;;6092548;23;20041;-75
2023/05/07 07:20:05;;;;;;;3.03;2.83;;;;;;;;;;6107270;23;20014;-74
2023/05/07 07:22:32;;;;;;;2.42;2.28;;;;;;;;;;6100561;23;20081;-74
2023/05/07 07:24:58;;;;;;;2.60;2.20;;;;;;;;;;6076280;23;20045;-74
2023/05/07 07:27:24;;;;;;;2.00;1.90;;;;;;;;;;6099477;23;20022;-74
2023/05/07 07:29:50;;;;;;;4.22;2.67;;;;;;;;;;6074506;23;20403;-74
2023/05/07 07:32:16;;;;;;;1.77;1.67;;;;;;;;;;6123838;23;20045;-73
2023/05/07 07:34:42;;;;;;;2.97;1.70;;;;;;;;;;6097960;23;20009;-74
2023/05/07 07:37:09;;;;;;;3.28;2.40;;;;;;;;;;6049815;23;20022;-74
2023/05/07 07:39:37;;;;;;;3.05;2.30;;;;;;;;;;6097679;23;20156;-74
2023/05/07 07:42:04;;;;;;;2.70;2.05;;;;;;;;;;6097427;23;20077;-74
2023/05/07 07:44:32;;;;;;;2.33;2.13;;;;;;;;;;6097689;23;20014;-74
2023/05/07 07:47:04;;;;;;;2.85;2.33;;;;;;;;;;6076724;23;20022;-74
2023/05/07 07:49:30;;;;;;;2.83;2.63;;;;;;;;;;6098397;23;20068;-74
2023/05/07 07:52:00;;;;;;;2.55;2.35;;;;;;;;;;6074748;23;20359;-74
2023/05/07 07:54:28;;;;;;;2.20;2.00;;;;;;;;;;6073603;23;20021;-74
2023/05/07 07:56:54;;;;;;;3.58;1.75;;;;;;;;;;6098997;23;20030;-74
2023/05/07 07:59:20;;;;;;;2.10;2.00;;;;;;;;;;6098028;23;20016;-75
2023/05/07 08:01:50;;;;;;;1.83;1.73;;;;;;;;;;6074116;23;20025;-74
2023/05/07 08:04:16;;;;;;;1.92;1.88;;;;;;;;;;6123154;23;20101;-74
2023/05/07 08:06:43;;;;;;;2.30;2.20;;;;;;;;;;6097433;23;20390;-74
2023/05/07 08:09:10;;;;;;;2.08;1.88;;;;;;;;;;6097661;23;20481;-74
2023/05/07 08:11:37;;;;;;;3.00;1.98;;;;;;;;;;6097813;23;20321;-73
2023/05/07 08:14:04;;;;;;;2.53;2.00;;;;;;;;;;6074110;23;20095;-74
2023/05/07 08:16:31;;;;;;;3.33;1.60;;;;;;;;;;6073197;23;20370;-73
2023/05/07 08:18:59;;;;;;;3.30;1.90;;;;;;;;;;6097653;23;20098;-74
2023/05/07 08:21:26;;;;;;;3.03;2.38;;;;;;;;;;6097220;23;20358;-74
2023/05/07 08:23:52;;;;;;;3.45;2.80;;;;;;;;;;6073868;23;20037;-74
2023/05/07 08:26:18;;;;;;;1.63;1.42;;;;;;;;;;6122622;23;20018;-74
2023/05/07 08:28:44;;;;;;;2.65;2.30;;;;;;;;;;6097686;23;20554;-73
2023/05/07 08:31:10;;;;;;;4.95;2.55;;;;;;;;;;6097161;23;20049;-74
2023/05/07 08:33:40;;;;;;;1.92;1.83;;;;;;;;;;6097489;23;20018;-74
2023/05/07 08:36:06;;;;;;;3.92;1.75;;;;;;;;;;6073435;23;20025;-74
2023/05/07 08:38:33;;;;;;;1.80;1.70;;;;;;;;;;6123003;23;20093;-74
2023/05/07 08:40:59;;;;;;;3.42;1.73;;;;;;;;;;6097391;23;20026;-74
2023/05/07 08:43:26;;;;;;;2.47;2.25;;;;;;;;;;6073275;23;20013;-74
2023/05/07 08:45:53;;;;;;;2.70;2.50;;;;;;;;;;6073083;23;20017;-74
2023/05/07 08:48:20;;;;;;;4.88;3.25;;;;;;;;;;6096781;23;20093;-74
2023/05/07 08:50:55;;;;;;;14.70;3.33;;;;;;;;;;6073177;23;20013;-74
2023/05/07 08:53:21;;;;;;;1.90;1.80;;;;;;;;;;6096954;23;20077;-74
2023/05/07 08:55:48;;;;;;;2.08;1.88;;;;;;;;;;6097353;23;20010;-74
2023/05/07 08:58:15;;;;;;;2.00;1.90;;;;;;;;;;6073396;23;20017;-73
2023/05/07 09:00:41;;;;;;;2.10;2.00;;;;;;;;;;6123108;23;20097;-74
2023/05/07 09:03:08;;;;;;;2.05;1.95;;;;;;;;;;6097591;23;20122;-74
2023/05/07 09:05:35;;;;;;;4.03;1.95;;;;;;;;;;6073308;23;20547;-74
2023/05/07 09:08:03;;;;;;;2.03;1.80;;;;;;;;;;6097450;23;20033;-73
2023/05/07 09:10:29;;;;;;;4.30;2.10;;;;;;;;;;6097695;23;20020;-74
2023/05/07 09:12:56;;;;;;;4.32;1.92;;;;;;;;;;6098080;23;20014;-74
2023/05/07 09:15:22;;;;;;;2.28;1.92;;;;;;;;;;6124333;23;20403;-74
2023/05/07 09:17:48;;;;;;;1.80;1.70;;;;;;;;;;6102456;23;20014;-75
2023/05/07 09:20:14;;;;;;;2.40;1.75;;;;;;;;;;6061343;23;20024;-75
2023/05/07 09:22:40;;;;;;;3.42;1.50;;;;;;;;;;6108672;23;20009;-74
2023/05/07 09:25:10;;;;;;;1.83;1.73;;;;;;;;;;6080066;23;20024;-75
2023/05/07 09:27:38;;;;;;;1.45;1.35;;;;;;;;;;6098955;23;20371;-74
2023/05/07 09:30:06;;;;;;;3.88;1.80;;;;;;;;;;6124789;23;20033;-74
2023/05/07 09:32:34;;;;;;;1.75;1.65;;;;;;;;;;6099091;23;20086;-74
2023/05/07 09:35:02;;;;;;;1.85;1.75;;;;;;;;;;6099260;23;20392;-74
2023/05/07 09:37:30;;;;;;;1.35;1.35;;;;;;;;;;6076362;23;20100;-74
2023/05/07 09:39:56;;;;;;;1.30;1.30;;;;;;;;;;6099142;23;20044;-74
2023/05/07 09:42:24;;;;;;;1.80;1.70;;;;;;;;;;6124439;23;20018;-74
2023/05/07 09:44:52;;;;;;;2.10;2.00;;;;;;;;;;6098827;23;20006;-74
2023/05/07 09:47:23;;;;;;;3.03;1.83;;;;;;;;;;6099149;23;20026;-73
2023/05/07 09:49:53;;;;;;;1.85;1.75;;;;;;;;;;6052281;23;20025;-73
2023/05/07 09:52:20;;;;;;;2.10;1.90;;;;;;;;;;6075037;23;20014;-74
2023/05/07 09:54:50;;;;;;;3.05;1.70;;;;;;;;;;6098995;23;20407;-74
2023/05/07 09:57:18;;;;;;;2.15;2.05;;;;;;;;;;6124491;23;20340;-74
2023/05/07 09:59:47;;;;;;;1.90;1.80;;;;;;;;;;6076970;23;20049;-74
2023/05/07 10:02:16;;;;;;;1.75;1.73;;;;;;;;;;6098822;23;20041;-74
2023/05/07 10:04:48;;;;;;;2.30;2.10;;;;;;;;;;6099073;23;20360;-74
2023/05/07 10:07:17;;;;;;;2.10;2.00;;;;;;;;;;6075600;23;20108;-73
2023/05/07 10:09:46;;;;;;;1.50;1.40;;;;;;;;;;6074687;23;20014;-74
2023/05/07 10:12:21;;;;;;;1.92;1.83;;;;;;;;;;6124430;23;20426;-75
2023/05/07 10:14:48;;;;;;;1.50;1.50;;;;;;;;;;6075010;23;20498;-73
2023/05/07 10:17:16;;;;;;;1.77;1.67;;;;;;;;;;6050672;23;20020;-74
2023/05/07 10:19:43;;;;;;;2.40;2.20;;;;;;;;;;6074552;23;20465;-74
2023/05/07 10:22:09;;;;;;;2.00;1.90;;;;;;;;;;6074120;23;20455;-74
2023/05/07 10:24:40;;;;;;;3.03;1.92;;;;;;;;;;6098448;23;20447;-74
2023/05/07 10:27:12;;;;;;;9.05;2.28;;;;;;;;;;6075616;23;20088;-74
2023/05/07 10:29:46;;;;;;;1.75;1.65;;;;;;;;;;6098575;23;20029;-74
2023/05/07 10:32:31;;;;;;;3.35;1.92;;;;;;;;;;6124348;23;20041;-74
2023/05/07 10:34:59;;;;;;;1.50;1.50;;;;;;;;;;6074667;23;20018;-73
2023/05/07 10:37:25;;;;;;;1.10;1.10;;;;;;;;;;6098262;23;20088;-73
2023/05/07 10:39:51;;;;;;;1.33;1.33;;;;;;;;;;6074015;23;20139;-73
2023/05/07 10:42:18;;;;;;;1.35;1.20;;;;;;;;;;6074513;23;20536;-73
2023/05/07 10:44:49;;;;;;;1.80;1.73;;;;;;;;;;6124332;23;20014;-74
2023/05/07 10:47:22;;;;;;;1.98;1.88;;;;;;;;;;6074019;23;20037;-73
2023/05/07 10:49:51;;;;;;;1.48;1.38;;;;;;;;;;6098074;23;20014;-74
2023/05/07 10:52:29;;;;;;;2.15;2.05;;;;;;;;;;6097636;23;20028;-73
2023/05/07 10:55:21;;;;;;;3.58;1.90;;;;;;;;;;6073729;23;20014;-74
2023/05/07 10:58:22;;;;;;;2.80;2.60;;;;;;;;;;6089267;23;20092;-74
2023/05/07 11:00:56;;;;;;;1.85;1.75;;;;;;;;;;6098758;23;20014;-74
2023/05/07 11:03:27;;;;;;;2.05;1.95;;;;;;;;;;6100020;23;20109;-73
2023/05/07 11:06:12;;;;;;;1.63;1.63;;;;;;;;;;6098538;23;20105;-74
2023/05/07 11:09:08;;;;;;;1.83;1.73;;;;;;;;;;6109647;23;20340;-74
2023/05/07 11:11:46;;;;;;;1.90;1.80;;;;;;;;;;6098168;23;20473;-74
2023/05/07 11:14:36;;;;;;;3.38;1.77;;;;;;;;;;6075361;23;20018;-74
2023/05/07 11:17:08;;;;;;;2.67;1.92;;;;;;;;;;6075430;23;20104;-74
2023/05/07 11:19:49;;;;;;;1.90;1.45;;;;;;;;;;6073542;23;20056;-74
2023/05/07 11:22:36;;;;;;;1.92;1.83;;;;;;;;;;6097398;23;20241;-74
2023/05/07 11:25:26;;;;;;;5.60;1.83;;;;;;;;;;6123265;23;20092;-74
2023/05/07 11:28:13;;;;;;;7.57;2.45;;;;;;;;;;6101693;23;20483;-73
2023/05/07 11:30:46;;;;;;;3.80;1.60;;;;;;;;;;6097589;23;20030;-73
2023/05/07 11:33:17;;;;;;;7.15;2.08;;;;;;;;;;6098051;23;20005;-74
2023/05/07 11:35:43;;;;;;;1.92;1.70;;;;;;;;;;6097606;23;20021;-74
2023/05/07 11:38:12;;;;;;;1.92;1.83;;;;;;;;;;6074348;23;20033;-74
2023/05/07 11:41:08;;;;;;;2.30;2.15;;;;;;;;;;6097429;23;20089;-75
2023/05/07 11:43:35;;;;;;;1.38;1.08;;;;;;;;;;6092695;23;20013;-74
2023/05/07 11:46:05;;;;;;;1.90;1.80;;;;;;;;;;6123295;23;20021;-74
2023/05/07 11:48:31;;;;;;;3.15;1.50;;;;;;;;;;6097103;23;20108;-73
2023/05/07 11:51:04;;;;;;;5.55;2.25;;;;;;;;;;6073382;23;20474;-73
2023/05/07 11:53:37;;;;;;;1.98;1.88;;;;;;;;;;6123223;23;20028;-73
2023/05/07 11:56:06;;;;;;;4.00;1.98;;;;;;;;;;6097846;23;20021;-75
2023/05/07 11:58:33;;;;;;;1.95;1.85;;;;;;;;;;6123298;23;20347;-75
2023/05/07 12:00:59;;;;;;;1.30;1.30;;;;;;;;;;6124128;23;20040;-74
2023/05/07 12:03:25;;;;;;;4.82;2.22;;;;;;;;;;6123799;23;20029;-74
2023/05/07 12:05:51;;;;;;;5.05;2.58;;;;;;;;;;6073692;23;20033;-74
2023/05/07 12:08:17;;;;;;;6.35;2.38;;;;;;;;;;6124879;23;20332;-74
2023/05/07 12:10:47;;;;;;;2.67;2.47;;;;;;;;;;6103187;23;20009;-73
2023/05/07 12:13:23;;;;;;;3.65;2.20;;;;;;;;;;6133602;23;20104;-74
2023/05/07 12:15:52;;;;;;;2.22;2.08;;;;;;;;;;6132333;23;20144;-74
2023/05/07 12:18:18;;;;;;;2.40;2.20;;;;;;;;;;6127010;23;20018;-73
2023/05/07 12:20:44;;;;;;;1.75;1.65;;;;;;;;;;6123147;23;20367;-74
2023/05/07 12:23:19;;;;;;;2.00;1.90;;;;;;;;;;5191419;27;20603;-74
2023/05/07 12:25:48;;;;;;;2.20;2.00;;;;;;;;;;5130558;27;20125;-74
2023/05/07 12:28:16;;;;;;;1.90;1.80;;;;;;;;;;5149266;27;20522;-73
2023/05/07 12:30:43;;;;;;;2.25;2.15;;;;;;;;;;5148887;27;20063;-74
2023/05/07 12:33:09;;;;;;;3.30;2.00;;;;;;;;;;5149223;27;20030;-74
2023/05/07 12:35:39;;;;;;;5.45;2.20;;;;;;;;;;5148865;27;20031;-74
2023/05/07 12:38:11;;;;;;;2.10;2.00;;;;;;;;;;5130644;27;20053;-74
2023/05/07 12:40:50;;;;;;;1.55;1.50;;;;;;;;;;5130492;27;20045;-73
2023/05/07 12:43:26;;;;;;;2.20;2.10;;;;;;;;;;5131185;27;20574;-74
2023/05/07 12:45:56;;;;;;;1.38;1.38;;;;;;;;;;5148679;27;20033;-73
2023/05/07 12:48:22;;;;;;;1.00;1.00;;;;;;;;;;5130421;27;20073;-73
2023/05/07 12:50:49;;;;;;;2.00;1.90;;;;;;;;;;5148600;27;20035;-74
2023/05/07 12:53:15;;;;;;;2.22;1.77;;;;;;;;;;5130380;27;20417;-73
2023/05/07 12:55:42;;;;;;;2.28;2.10;;;;;;;;;;5129914;27;20438;-73
2023/05/07 12:58:08;;;;;;;2.35;2.00;;;;;;;;;;5148780;27;20030;-73
2023/05/07 13:00:37;;;;;;;1.90;1.80;;;;;;;;;;5148444;27;20505;-74
2023/05/07 13:03:03;;;;;;;2.42;2.28;;;;;;;;;;5130239;27;20191;-73
2023/05/07 13:05:30;;;;;;;1.70;1.63;;;;;;;;;;5148346;27;20417;-73
2023/05/07 13:07:56;;;;;;;2.63;1.80;;;;;;;;;;5148565;27;20062;-74
2023/05/07 13:10:23;;;;;;;2.00;1.90;;;;;;;;;;5130337;27;20115;-73
2023/05/07 13:12:49;;;;;;;2.17;2.08;;;;;;;;;;5148685;27;20034;-74
2023/05/07 13:15:15;;;;;;;2.67;2.20;;;;;;;;;;5130350;27;20205;-74
2023/05/07 13:17:41;;;;;;;2.25;2.08;;;;;;;;;;5148179;27;20501;-74
2023/05/07 13:20:09;;;;;;;2.47;2.08;;;;;;;;;;5148524;27;20047;-74
2023/05/07 13:22:35;;;;;;;2.55;2.20;;;;;;;;;;5118839;27;20055;-73
2023/05/07 13:25:01;;;;;;;1.75;1.70;;;;;;;;;;5167789;27;20030;-74
2023/05/07 13:27:27;;;;;;;1.95;1.67;;;;;;;;;;5149712;27;20061;-74
2023/05/07 13:29:53;;;;;;;2.15;1.98;;;;;;;;;;5168481;27;20046;-74
2023/05/07 13:32:19;;;;;;;2.55;2.33;;;;;;;;;;5143756;27;20030;-74
2023/05/07 13:34:45;;;;;;;3.55;2.13;;;;;;;;;;5098522;27;20416;-74
2023/05/07 13:37:11;;;;;;;2.53;1.92;;;;;;;;;;5115896;27;20031;-73
2023/05/07 13:39:37;;;;;;;3.40;2.33;;;;;;;;;;5134130;27;20305;-73
2023/05/07 13:42:03;;;;;;;2.30;1.67;;;;;;;;;;5133889;27;20347;-73
2023/05/07 13:44:29;;;;;;;5.28;2.65;;;;;;;;;;5134011;27;20027;-74
2023/05/07 13:46:55;;;;;;;2.25;2.15;;;;;;;;;;5133976;27;20063;-73
2023/05/07 13:49:21;;;;;;;3.75;1.90;;;;;;;;;;5134073;27;20472;-73
2023/05/07 13:51:47;;;;;;;2.03;1.92;;;;;;;;;;5115220;27;20031;-73
2023/05/07 13:54:13;;;;;;;2.10;1.88;;;;;;;;;;5133600;27;20126;-73
2023/05/07 13:56:39;;;;;;;4.82;1.70;;;;;;;;;;5133576;27;20066;-74
2023/05/07 13:59:05;;;;;;;1.92;1.70;;;;;;;;;;5133765;27;20047;-73
2023/05/07 14:01:31;;;;;;;4.55;1.83;;;;;;;;;;5133387;27;20107;-73
2023/05/07 14:04:00;;;;;;;2.25;1.80;;;;;;;;;;5134473;27;20090;-74
2023/05/07 14:06:26;;;;;;;1.67;1.60;;;;;;;;;;5115525;27;20112;-74
2023/05/07 14:08:52;;;;;;;2.97;1.67;;;;;;;;;;5115928;27;20091;-74
2023/05/07 14:11:18;;;;;;;2.35;1.70;;;;;;;;;;5134352;27;20043;-74
2023/05/07 14:13:47;;;;;;;4.97;2.17;;;;;;;;;;5115601;27;20088;-74
2023/05/07 14:16:13;;;;;;;2.83;2.30;;;;;;;;;;5116287;27;20083;-75
2023/05/07 14:18:39;;;;;;;2.70;1.95;;;;;;;;;;5098919;27;20038;-74
2023/05/07 14:21:09;;;;;;;2.55;2.20;;;;;;;;;;5115564;27;20041;-74
2023/05/07 14:23:36;;;;;;;7.90;2.80;;;;;;;;;;5134617;27;20063;-74
2023/05/07 14:26:02;;;;;;;4.00;2.40;;;;;;;;;;5134229;27;20638;-74
2023/05/07 14:28:27;;;;;;;17.33;2.30;;;;;;;;;;5117675;27;20039;-73
2023/05/07 14:30:53;;;;;;;2.42;2.05;;;;;;;;;;5129285;27;20027;-74
2023/05/07 14:33:19;;;;;;;2.63;2.40;;;;;;;;;;5150108;27;20031;-74
2023/05/07 14:35:48;;;;;;;2.33;2.22;;;;;;;;;;5139854;27;20038;-74
2023/05/07 14:38:15;;;;;;;2.58;2.45;;;;;;;;;;5120551;27;20561;-75
2023/05/07 14:40:41;;;;;;;2.90;2.63;;;;;;;;;;5139092;27;20054;-73
2023/05/07 14:43:07;;;;;;;2.03;1.92;;;;;;;;;;5124137;27;20053;-73
2023/05/07 14:45:33;;;;;;;2.20;2.03;;;;;;;;;;5132028;27;20109;-74
2023/05/07 14:47:59;;;;;;;2.30;2.10;;;;;;;;;;5132823;27;20409;-73